createdAt,value
2023-03-22T00:00:15.784Z,90.48
2023-03-22T00:05:34.939Z,90.01
2023-03-22T00:10:54.544Z,91.35
2023-03-22T00:16:14.367Z,92.14
2023-03-22T00:21:33.343Z,93.31
2023-03-22T00:26:52.278Z,94.32
2023-03-22T00:32:11.575Z,94.9
2023-03-22T00:37:38.839Z,94.11
2023-03-22T00:42:50.144Z,92.15
2023-03-22T00:48:16.936Z,90.73
2023-03-22T00:53:27.754Z,89.88
2023-03-22T00:58:46.706Z,89.5
2023-03-22T01:04:05.543Z,89.21
2023-03-22T01:09:24.708Z,89.08
2023-03-22T01:14:43.744Z,87.96
2023-03-22T01:20:02.881Z,86.55
2023-03-22T01:25:22.233Z,85.17
2023-03-22T01:30:49.415Z,84.49
2023-03-22T01:36:00.905Z,85.44
2023-03-22T01:41:20.070Z,85.38
2023-03-22T01:46:39.743Z,88.6
2023-03-22T01:51:59.153Z,89.87
2023-03-22T01:57:18.197Z,87.9
2023-03-22T02:02:37.905Z,86.25
2023-03-22T02:07:57.578Z,85.01
2023-03-22T02:13:16.481Z,84.62
2023-03-22T02:18:35.351Z,83.98
2023-03-22T02:24:03.982Z,84.76
2023-03-22T02:29:14.270Z,84.79
2023-03-22T02:34:33.487Z,84.64
2023-03-22T02:39:52.799Z,85.53
2023-03-22T02:45:11.622Z,85.18
2023-03-22T02:50:30.511Z,84.81
2023-03-22T02:55:49.838Z,84.26
2023-03-22T03:01:08.838Z,83.96
2023-03-22T03:06:28.534Z,86.35
2023-03-22T03:11:47.474Z,86.35
2023-03-22T03:17:06.517Z,87.93
2023-03-22T03:22:26.072Z,89.85
2023-03-22T03:27:46.027Z,90.31
2023-03-22T03:33:05.676Z,90.6
2023-03-22T03:38:25.117Z,89.86
2023-03-22T03:43:44.688Z,89.53
2023-03-22T03:49:04.322Z,89.49
2023-03-22T03:54:22.610Z,88
2023-03-22T03:59:42.177Z,89.48
2023-03-22T04:05:01.608Z,87.3
2023-03-22T04:10:20.595Z,87.71
2023-03-22T04:15:40.229Z,86.05
2023-03-22T04:20:59.486Z,87.35
2023-03-22T04:26:18.556Z,88.82
2023-03-22T04:31:38.068Z,90.22
2023-03-22T04:36:57.152Z,91.87
2023-03-22T04:42:16.357Z,91.54
2023-03-22T04:47:36.010Z,90.7
2023-03-22T04:52:55.580Z,89.9
2023-03-22T04:53:20.628Z,87.99
2023-03-22T04:58:39.818Z,89.59
2023-03-22T05:03:58.814Z,89.39
2023-03-22T05:09:17.817Z,89.78
2023-03-22T05:14:37.631Z,87.98
2023-03-22T05:19:56.367Z,90.09
2023-03-22T05:25:15.358Z,90.21
2023-03-22T05:30:34.417Z,88.86
2023-03-22T05:35:53.901Z,92.77
2023-03-22T05:41:12.830Z,93.64
2023-03-22T05:46:32.268Z,92.89
2023-03-22T05:51:51.927Z,90.26
2023-03-22T05:57:12.005Z,88.78
2023-03-22T06:02:29.914Z,88.12
2023-03-22T06:07:49.494Z,89.04
2023-03-22T06:13:08.965Z,88.97
2023-03-22T06:18:28.119Z,88.63
2023-03-22T06:23:46.904Z,88.47
2023-03-22T06:29:06.347Z,87.99
2023-03-22T06:34:25.793Z,88.26
2023-03-22T06:39:45.063Z,87.78
2023-03-22T06:45:03.972Z,87.73
2023-03-22T06:50:22.750Z,88.05
2023-03-22T06:55:42.304Z,87.03
2023-03-22T07:01:01.010Z,84.73
2023-03-22T07:06:20.041Z,82.68
2023-03-22T07:11:38.969Z,81.61
2023-03-22T07:16:58.095Z,81.98
2023-03-22T07:22:16.930Z,80.65
2023-03-22T07:27:36.229Z,81.56
2023-03-22T07:32:55.699Z,77.73
2023-03-22T07:38:14.592Z,75.16
2023-03-22T07:43:41.516Z,74.26
2023-03-22T07:48:52.696Z,71.41
2023-03-22T07:54:14.004Z,69.94
2023-03-22T07:59:30.231Z,69.37
2023-03-22T08:04:51.879Z,65.54
2023-03-22T08:10:08.367Z,66.51
2023-03-22T08:15:27.595Z,65.44
2023-03-22T08:20:46.774Z,65.81
2023-03-22T08:26:06.317Z,64.78
2023-03-22T08:31:25.390Z,64.91
2023-03-22T08:36:44.727Z,64.51
2023-03-22T08:42:04.322Z,64.54
2023-03-22T08:47:23.770Z,64.32
2023-03-22T08:52:42.943Z,64.28
2023-03-22T08:58:02.262Z,63.21
2023-03-22T09:03:21.436Z,62.71
2023-03-22T09:08:41.112Z,60.54
2023-03-22T09:14:00.541Z,59.51
2023-03-22T09:19:20.178Z,59.82
2023-03-22T09:24:39.049Z,62.25
2023-03-22T09:29:58.486Z,61.96
2023-03-22T09:35:17.248Z,61.54
2023-03-22T09:40:36.320Z,60.14
2023-03-22T09:45:55.401Z,61.09
2023-03-22T09:51:14.832Z,58.47
2023-03-22T09:56:34.491Z,58.83
2023-03-22T10:01:53.861Z,58.01
2023-03-22T10:07:12.424Z,57.47
2023-03-22T10:12:32.016Z,57.92
2023-03-22T10:17:50.739Z,59.03
2023-03-22T10:23:09.526Z,57.06
2023-03-22T10:28:28.667Z,58.74
2023-03-22T10:33:47.457Z,56.53
2023-03-22T10:39:07.155Z,56.31
2023-03-22T10:44:26.338Z,56.53
2023-03-22T10:49:45.517Z,57.34
2023-03-22T10:55:04.875Z,56.26
2023-03-22T11:00:24.472Z,56.22
2023-03-22T11:05:43.225Z,57.21
2023-03-22T11:11:01.978Z,55.95
2023-03-22T11:16:20.808Z,55.56
2023-03-22T11:21:40.264Z,55.37
2023-03-22T11:26:59.412Z,56.64
2023-03-22T11:32:18.977Z,53.75
2023-03-22T11:37:38.208Z,54.49
2023-03-22T11:42:57.795Z,54.26
2023-03-22T11:48:16.963Z,54.65
2023-03-22T11:53:35.751Z,53.51
2023-03-22T11:58:54.976Z,54.08
2023-03-22T12:04:13.715Z,53.64
2023-03-22T12:09:32.874Z,51.79
2023-03-22T12:14:52.435Z,52.15
2023-03-22T12:20:11.820Z,53.17
2023-03-22T12:25:31.201Z,52.22
2023-03-22T12:30:50.750Z,51.88
2023-03-22T12:36:09.509Z,51.56
2023-03-22T12:41:28.898Z,51.66
2023-03-22T12:46:48.149Z,50.39
2023-03-22T12:52:07.683Z,48.61
2023-03-22T12:57:27.386Z,51.85
2023-03-22T13:02:46.666Z,50.03
2023-03-22T13:08:05.418Z,49.87
2023-03-22T13:13:25.086Z,51.16
2023-03-22T13:18:44.529Z,50.3
2023-03-22T13:24:04.053Z,52.17
2023-03-22T13:29:23.536Z,50.86
2023-03-22T13:34:43.121Z,49.91
2023-03-22T13:40:02.669Z,48.7
2023-03-22T13:45:21.427Z,49.2
2023-03-22T13:50:41.082Z,48.68
2023-03-22T13:55:59.661Z,47
2023-03-22T14:01:18.963Z,46.78
2023-03-22T14:06:38.579Z,47.9
2023-03-22T14:11:58.064Z,49.62
2023-03-22T14:17:16.822Z,47.32
2023-03-22T14:54:30.268Z,44.18
2023-03-22T15:05:09.347Z,43.92
2023-03-22T15:10:28.655Z,43.6
2023-03-22T15:21:07.241Z,43.15
2023-03-22T15:37:04.559Z,43.51
2023-03-22T15:47:42.639Z,41.93
2023-03-22T15:53:01.319Z,43.05
2023-03-22T16:03:40.925Z,44.14
2023-03-22T16:14:17.589Z,44.65
2023-03-22T16:19:36.971Z,45.51
2023-03-22T16:30:15.814Z,45.99
2023-03-22T16:40:54.600Z,47.36
2023-03-22T16:46:13.506Z,48.16
2023-03-22T16:51:32.717Z,48.05
2023-03-22T16:56:52.200Z,49.04
2023-03-22T17:07:30.513Z,49.78
2023-03-22T17:12:50.010Z,50.06
2023-03-22T17:23:28.387Z,49.83
2023-03-22T17:28:47.167Z,49.08
2023-03-22T17:39:48.250Z,49.64
2023-03-22T17:44:44.554Z,49.9
2023-03-22T17:55:29.978Z,50.32
2023-03-22T18:06:01.526Z,51.34
2023-03-22T18:11:20.936Z,51.66
2023-03-22T18:22:00.310Z,52.98
2023-03-22T18:27:18.455Z,54.03
2023-03-22T18:32:55.183Z,54.83
2023-03-22T18:37:56.646Z,55.43
2023-03-22T18:48:36.404Z,57.11
2023-03-22T18:53:53.910Z,58.34
2023-03-22T19:04:32.288Z,59.89
2023-03-22T19:09:51.666Z,60.83
2023-03-22T19:20:39.685Z,61.34
2023-03-22T19:31:09.330Z,61.38
2023-03-22T19:36:28.555Z,60.24
2023-03-22T19:52:26.662Z,58.88
2023-03-22T20:03:05.151Z,60.42
2023-03-22T20:13:43.327Z,61.03
2023-03-22T20:19:02.832Z,59.86
2023-03-22T20:29:41.869Z,58.1
2023-03-22T20:35:01.437Z,59.53
2023-03-22T20:45:40.917Z,60.65
2023-03-22T20:51:00.122Z,60.19
2023-03-22T21:01:38.122Z,60.1
2023-03-22T21:12:16.609Z,62.52
2023-03-22T21:17:35.564Z,64.36
2023-03-22T21:28:14.569Z,65.32
2023-03-22T21:33:33.975Z,62.89
2023-03-22T21:38:53.332Z,61.4
2023-03-22T21:44:12.395Z,60.27
2023-03-22T21:54:50.388Z,61.76
2023-03-22T22:00:09.452Z,61.13
2023-03-22T22:10:46.982Z,60.86
2023-03-22T22:16:05.931Z,61.5
2023-03-22T22:26:44.322Z,59.91
2023-03-22T22:43:07.880Z,58.04
2023-03-22T22:48:27.026Z,57.72
2023-03-22T22:59:05.816Z,57.16
2023-03-22T23:09:44.377Z,58.41
2023-03-22T23:15:03.165Z,59.52
2023-03-22T23:25:41.920Z,58.46
2023-03-22T23:36:20.965Z,56.89
2023-03-22T23:41:39.998Z,56.68
2023-03-22T23:52:18.007Z,56.63
